sensor_id;sensor_type;location;lat;lon;timestamp;P1;durP1;ratioP1;P2;durP2;ratioP2
30896;SDS011;64229;52.246;21.054;2024-01-07T00:01:47;41.45;;;13.70;;
30896;SDS011;64229;52.246;21.054;2024-01-07T00:04:14;33.90;;;13.45;;
30896;SDS011;64229;52.246;21.054;2024-01-07T00:06:40;38.85;;;12.27;;
30896;SDS011;64229;52.246;21.054;2024-01-07T00:09:05;38.67;;;12.40;;
30896;SDS011;64229;52.246;21.054;2024-01-07T00:11:31;39.38;;;13.52;;
30896;SDS011;64229;52.246;21.054;2024-01-07T00:13:56;37.60;;;12.50;;
30896;SDS011;64229;52.246;21.054;2024-01-07T00:16:21;38.60;;;12.02;;
30896;SDS011;64229;52.246;21.054;2024-01-07T00:18:46;36.72;;;12.85;;
30896;SDS011;64229;52.246;21.054;2024-01-07T00:21:12;30.45;;;11.68;;
30896;SDS011;64229;52.246;21.054;2024-01-07T00:23:37;32.45;;;11.77;;
30896;SDS011;64229;52.246;21.054;2024-01-07T00:26:02;32.25;;;12.52;;
30896;SDS011;64229;52.246;21.054;2024-01-07T00:28:28;36.50;;;12.88;;
30896;SDS011;64229;52.246;21.054;2024-01-07T00:30:54;35.92;;;13.10;;
30896;SDS011;64229;52.246;21.054;2024-01-07T00:33:19;34.22;;;12.98;;
30896;SDS011;64229;52.246;21.054;2024-01-07T00:35:44;38.83;;;14.52;;
30896;SDS011;64229;52.246;21.054;2024-01-07T00:38:09;40.90;;;14.77;;
30896;SDS011;64229;52.246;21.054;2024-01-07T00:40:35;41.42;;;13.55;;
30896;SDS011;64229;52.246;21.054;2024-01-07T00:43:00;39.10;;;12.85;;
30896;SDS011;64229;52.246;21.054;2024-01-07T00:45:25;39.47;;;13.80;;
30896;SDS011;64229;52.246;21.054;2024-01-07T00:47:50;35.38;;;12.85;;
30896;SDS011;64229;52.246;21.054;2024-01-07T00:50:17;39.53;;;13.63;;
30896;SDS011;64229;52.246;21.054;2024-01-07T00:52:42;46.70;;;14.77;;
30896;SDS011;64229;52.246;21.054;2024-01-07T00:55:08;35.13;;;12.85;;
30896;SDS011;64229;52.246;21.054;2024-01-07T00:57:33;42.80;;;13.35;;
30896;SDS011;64229;52.246;21.054;2024-01-07T00:59:59;39.83;;;13.50;;
30896;SDS011;64229;52.246;21.054;2024-01-07T01:02:25;41.13;;;14.15;;
30896;SDS011;64229;52.246;21.054;2024-01-07T01:04:50;40.30;;;14.57;;
30896;SDS011;64229;52.246;21.054;2024-01-07T01:07:16;42.55;;;15.15;;
30896;SDS011;64229;52.246;21.054;2024-01-07T01:09:41;38.70;;;14.18;;
30896;SDS011;64229;52.246;21.054;2024-01-07T01:12:06;43.05;;;15.18;;
30896;SDS011;64229;52.246;21.054;2024-01-07T01:14:31;50.63;;;16.02;;
30896;SDS011;64229;52.246;21.054;2024-01-07T01:16:57;41.35;;;14.40;;
30896;SDS011;64229;52.246;21.054;2024-01-07T01:19:23;42.17;;;16.13;;
30896;SDS011;64229;52.246;21.054;2024-01-07T01:21:49;40.13;;;14.25;;
30896;SDS011;64229;52.246;21.054;2024-01-07T01:24:15;41.15;;;15.07;;
30896;SDS011;64229;52.246;21.054;2024-01-07T01:26:40;44.17;;;15.95;;
30896;SDS011;64229;52.246;21.054;2024-01-07T01:29:05;40.42;;;15.43;;
30896;SDS011;64229;52.246;21.054;2024-01-07T01:31:31;37.25;;;13.95;;
30896;SDS011;64229;52.246;21.054;2024-01-07T01:33:56;39.25;;;13.38;;
30896;SDS011;64229;52.246;21.054;2024-01-07T01:36:21;40.72;;;14.07;;
30896;SDS011;64229;52.246;21.054;2024-01-07T01:38:47;36.42;;;13.23;;
30896;SDS011;64229;52.246;21.054;2024-01-07T01:41:13;40.33;;;14.82;;
30896;SDS011;64229;52.246;21.054;2024-01-07T01:43:39;39.63;;;13.63;;
30896;SDS011;64229;52.246;21.054;2024-01-07T01:46:04;35.35;;;13.65;;
30896;SDS011;64229;52.246;21.054;2024-01-07T01:48:29;39.55;;;13.38;;
30896;SDS011;64229;52.246;21.054;2024-01-07T01:50:55;36.42;;;13.88;;
30896;SDS011;64229;52.246;21.054;2024-01-07T01:53:22;39.63;;;13.60;;
30896;SDS011;64229;52.246;21.054;2024-01-07T01:55:49;32.58;;;12.55;;
30896;SDS011;64229;52.246;21.054;2024-01-07T01:58:14;35.20;;;12.20;;
30896;SDS011;64229;52.246;21.054;2024-01-07T02:00:42;38.47;;;12.75;;
30896;SDS011;64229;52.246;21.054;2024-01-07T02:03:09;31.02;;;12.10;;
30896;SDS011;64229;52.246;21.054;2024-01-07T02:05:34;32.75;;;12.65;;
30896;SDS011;64229;52.246;21.054;2024-01-07T02:08:00;26.77;;;10.73;;
30896;SDS011;64229;52.246;21.054;2024-01-07T02:10:25;29.45;;;10.27;;
30896;SDS011;64229;52.246;21.054;2024-01-07T02:12:50;22.70;;;10.13;;
30896;SDS011;64229;52.246;21.054;2024-01-07T02:15:16;22.55;;;9.32;;
30896;SDS011;64229;52.246;21.054;2024-01-07T02:17:41;21.83;;;9.40;;
30896;SDS011;64229;52.246;21.054;2024-01-07T02:20:06;23.08;;;9.73;;
30896;SDS011;64229;52.246;21.054;2024-01-07T02:22:32;28.88;;;9.75;;
30896;SDS011;64229;52.246;21.054;2024-01-07T02:24:57;22.75;;;9.27;;
30896;SDS011;64229;52.246;21.054;2024-01-07T02:27:22;25.52;;;9.65;;
30896;SDS011;64229;52.246;21.054;2024-01-07T02:29:48;22.38;;;9.50;;
30896;SDS011;64229;52.246;21.054;2024-01-07T02:32:13;24.42;;;9.43;;
30896;SDS011;64229;52.246;21.054;2024-01-07T02:34:38;28.45;;;10.07;;
30896;SDS011;64229;52.246;21.054;2024-01-07T02:37:03;24.75;;;9.50;;
30896;SDS011;64229;52.246;21.054;2024-01-07T02:39:29;25.05;;;9.57;;
30896;SDS011;64229;52.246;21.054;2024-01-07T02:41:54;26.17;;;10.02;;
30896;SDS011;64229;52.246;21.054;2024-01-07T02:44:19;24.45;;;9.38;;
30896;SDS011;64229;52.246;21.054;2024-01-07T02:46:45;27.65;;;9.30;;
30896;SDS011;64229;52.246;21.054;2024-01-07T02:49:11;23.20;;;9.10;;
30896;SDS011;64229;52.246;21.054;2024-01-07T02:51:37;24.80;;;9.88;;
30896;SDS011;64229;52.246;21.054;2024-01-07T02:54:02;24.83;;;9.90;;
30896;SDS011;64229;52.246;21.054;2024-01-07T02:56:28;23.95;;;9.57;;
30896;SDS011;64229;52.246;21.054;2024-01-07T02:58:53;29.27;;;9.95;;
30896;SDS011;64229;52.246;21.054;2024-01-07T03:01:21;23.27;;;9.68;;
30896;SDS011;64229;52.246;21.054;2024-01-07T03:03:47;24.38;;;8.85;;
30896;SDS011;64229;52.246;21.054;2024-01-07T03:06:13;30.00;;;10.38;;
30896;SDS011;64229;52.246;21.054;2024-01-07T03:08:38;23.33;;;9.60;;
30896;SDS011;64229;52.246;21.054;2024-01-07T03:11:06;28.52;;;9.57;;
30896;SDS011;64229;52.246;21.054;2024-01-07T03:13:31;30.05;;;10.40;;
30896;SDS011;64229;52.246;21.054;2024-01-07T03:15:57;27.00;;;10.25;;
30896;SDS011;64229;52.246;21.054;2024-01-07T03:18:22;26.30;;;9.60;;
30896;SDS011;64229;52.246;21.054;2024-01-07T03:20:47;24.70;;;9.50;;
30896;SDS011;64229;52.246;21.054;2024-01-07T03:23:13;25.10;;;9.68;;
30896;SDS011;64229;52.246;21.054;2024-01-07T03:25:38;25.65;;;10.32;;
30896;SDS011;64229;52.246;21.054;2024-01-07T03:28:03;22.95;;;9.60;;
30896;SDS011;64229;52.246;21.054;2024-01-07T03:30:29;25.33;;;9.93;;
30896;SDS011;64229;52.246;21.054;2024-01-07T03:32:54;26.33;;;10.30;;
30896;SDS011;64229;52.246;21.054;2024-01-07T03:35:19;32.28;;;10.90;;
30896;SDS011;64229;52.246;21.054;2024-01-07T03:37:45;25.70;;;11.25;;
30896;SDS011;64229;52.246;21.054;2024-01-07T03:40:10;30.08;;;10.40;;
30896;SDS011;64229;52.246;21.054;2024-01-07T03:42:36;27.77;;;10.15;;
30896;SDS011;64229;52.246;21.054;2024-01-07T03:45:02;30.80;;;10.73;;
30896;SDS011;64229;52.246;21.054;2024-01-07T03:47:27;22.27;;;9.50;;
30896;SDS011;64229;52.246;21.054;2024-01-07T03:49:53;27.23;;;10.65;;
30896;SDS011;64229;52.246;21.054;2024-01-07T03:52:18;27.25;;;10.60;;
30896;SDS011;64229;52.246;21.054;2024-01-07T03:54:43;25.33;;;9.48;;
30896;SDS011;64229;52.246;21.054;2024-01-07T03:57:08;27.25;;;9.80;;
30896;SDS011;64229;52.246;21.054;2024-01-07T03:59:34;24.15;;;9.60;;
30896;SDS011;64229;52.246;21.054;2024-01-07T04:01:59;24.80;;;10.63;;
30896;SDS011;64229;52.246;21.054;2024-01-07T04:04:24;20.38;;;9.23;;
30896;SDS011;64229;52.246;21.054;2024-01-07T04:06:49;25.77;;;10.23;;
30896;SDS011;64229;52.246;21.054;2024-01-07T04:09:15;26.08;;;9.70;;
30896;SDS011;64229;52.246;21.054;2024-01-07T04:11:40;23.48;;;9.75;;
30896;SDS011;64229;52.246;21.054;2024-01-07T04:14:06;28.52;;;9.70;;
30896;SDS011;64229;52.246;21.054;2024-01-07T04:16:32;23.42;;;8.98;;
30896;SDS011;64229;52.246;21.054;2024-01-07T04:18:57;25.48;;;10.02;;
30896;SDS011;64229;52.246;21.054;2024-01-07T04:21:22;33.03;;;11.48;;
30896;SDS011;64229;52.246;21.054;2024-01-07T04:23:48;25.63;;;11.02;;
30896;SDS011;64229;52.246;21.054;2024-01-07T04:26:13;24.88;;;8.88;;
30896;SDS011;64229;52.246;21.054;2024-01-07T04:28:40;26.50;;;9.70;;
30896;SDS011;64229;52.246;21.054;2024-01-07T04:31:06;26.05;;;10.07;;
30896;SDS011;64229;52.246;21.054;2024-01-07T04:33:31;28.83;;;9.63;;
30896;SDS011;64229;52.246;21.054;2024-01-07T04:35:57;31.02;;;10.30;;
30896;SDS011;64229;52.246;21.054;2024-01-07T04:38:24;22.35;;;9.20;;
30896;SDS011;64229;52.246;21.054;2024-01-07T04:40:49;23.77;;;10.18;;
30896;SDS011;64229;52.246;21.054;2024-01-07T04:43:15;29.38;;;10.77;;
30896;SDS011;64229;52.246;21.054;2024-01-07T04:45:40;22.40;;;9.18;;
30896;SDS011;64229;52.246;21.054;2024-01-07T04:48:06;30.08;;;9.98;;
30896;SDS011;64229;52.246;21.054;2024-01-07T04:50:31;23.27;;;8.57;;
30896;SDS011;64229;52.246;21.054;2024-01-07T04:52:56;27.95;;;9.43;;
30896;SDS011;64229;52.246;21.054;2024-01-07T04:55:22;26.65;;;9.35;;
30896;SDS011;64229;52.246;21.054;2024-01-07T04:57:47;24.73;;;9.02;;
30896;SDS011;64229;52.246;21.054;2024-01-07T05:00:12;25.48;;;9.20;;
30896;SDS011;64229;52.246;21.054;2024-01-07T05:02:38;25.42;;;9.10;;
30896;SDS011;64229;52.246;21.054;2024-01-07T05:05:03;30.20;;;10.05;;
30896;SDS011;64229;52.246;21.054;2024-01-07T05:07:29;26.38;;;10.07;;
30896;SDS011;64229;52.246;21.054;2024-01-07T05:09:54;28.30;;;9.30;;
30896;SDS011;64229;52.246;21.054;2024-01-07T05:12:19;28.58;;;10.32;;
30896;SDS011;64229;52.246;21.054;2024-01-07T05:14:45;29.52;;;10.80;;
30896;SDS011;64229;52.246;21.054;2024-01-07T05:17:11;25.08;;;9.43;;
30896;SDS011;64229;52.246;21.054;2024-01-07T05:19:39;30.02;;;9.50;;
30896;SDS011;64229;52.246;21.054;2024-01-07T05:22:05;25.67;;;10.07;;
30896;SDS011;64229;52.246;21.054;2024-01-07T05:24:30;29.00;;;10.48;;
30896;SDS011;64229;52.246;21.054;2024-01-07T05:26:55;26.65;;;9.95;;
30896;SDS011;64229;52.246;21.054;2024-01-07T05:29:21;31.75;;;9.93;;
30896;SDS011;64229;52.246;21.054;2024-01-07T05:31:47;25.45;;;9.45;;
30896;SDS011;64229;52.246;21.054;2024-01-07T05:34:12;27.02;;;8.98;;
30896;SDS011;64229;52.246;21.054;2024-01-07T05:36:37;27.10;;;9.90;;
30896;SDS011;64229;52.246;21.054;2024-01-07T05:39:03;26.10;;;9.13;;
30896;SDS011;64229;52.246;21.054;2024-01-07T05:41:28;26.05;;;9.40;;
30896;SDS011;64229;52.246;21.054;2024-01-07T05:43:53;24.42;;;9.57;;
30896;SDS011;64229;52.246;21.054;2024-01-07T05:46:19;27.05;;;9.63;;
30896;SDS011;64229;52.246;21.054;2024-01-07T05:48:46;24.55;;;9.10;;
30896;SDS011;64229;52.246;21.054;2024-01-07T05:51:12;23.80;;;8.95;;
30896;SDS011;64229;52.246;21.054;2024-01-07T05:53:38;28.40;;;10.38;;
30896;SDS011;64229;52.246;21.054;2024-01-07T05:56:04;24.98;;;9.13;;
30896;SDS011;64229;52.246;21.054;2024-01-07T05:58:30;23.17;;;8.88;;
30896;SDS011;64229;52.246;21.054;2024-01-07T06:00:55;23.45;;;9.00;;
30896;SDS011;64229;52.246;21.054;2024-01-07T06:03:20;24.83;;;8.23;;
30896;SDS011;64229;52.246;21.054;2024-01-07T06:05:46;28.35;;;8.70;;
30896;SDS011;64229;52.246;21.054;2024-01-07T06:08:11;25.95;;;9.35;;
30896;SDS011;64229;52.246;21.054;2024-01-07T06:10:36;25.08;;;8.73;;
30896;SDS011;64229;52.246;21.054;2024-01-07T06:13:02;24.15;;;9.23;;
30896;SDS011;64229;52.246;21.054;2024-01-07T06:15:28;23.20;;;9.05;;
30896;SDS011;64229;52.246;21.054;2024-01-07T06:17:54;22.10;;;8.18;;
30896;SDS011;64229;52.246;21.054;2024-01-07T06:20:19;26.38;;;8.73;;
30896;SDS011;64229;52.246;21.054;2024-01-07T06:22:44;21.48;;;8.75;;
30896;SDS011;64229;52.246;21.054;2024-01-07T06:25:09;25.83;;;8.57;;
30896;SDS011;64229;52.246;21.054;2024-01-07T06:27:35;21.00;;;8.77;;
30896;SDS011;64229;52.246;21.054;2024-01-07T06:30:00;23.27;;;9.30;;
30896;SDS011;64229;52.246;21.054;2024-01-07T06:32:26;22.33;;;9.15;;
30896;SDS011;64229;52.246;21.054;2024-01-07T06:34:51;24.65;;;8.85;;
30896;SDS011;64229;52.246;21.054;2024-01-07T06:37:17;25.05;;;9.60;;
30896;SDS011;64229;52.246;21.054;2024-01-07T06:39:42;24.02;;;9.35;;
30896;SDS011;64229;52.246;21.054;2024-01-07T06:42:07;26.10;;;10.43;;
30896;SDS011;64229;52.246;21.054;2024-01-07T06:44:33;24.42;;;9.43;;
30896;SDS011;64229;52.246;21.054;2024-01-07T06:46:58;28.00;;;9.60;;
30896;SDS011;64229;52.246;21.054;2024-01-07T06:49:23;21.75;;;8.70;;
30896;SDS011;64229;52.246;21.054;2024-01-07T06:51:48;20.38;;;8.57;;
30896;SDS011;64229;52.246;21.054;2024-01-07T06:54:14;23.23;;;8.52;;
30896;SDS011;64229;52.246;21.054;2024-01-07T06:59:12;16.67;;;8.23;;
30896;SDS011;64229;52.246;21.054;2024-01-07T07:01:38;19.45;;;7.80;;
30896;SDS011;64229;52.246;21.054;2024-01-07T07:04:03;17.58;;;7.85;;
30896;SDS011;64229;52.246;21.054;2024-01-07T07:06:28;21.77;;;8.23;;
30896;SDS011;64229;52.246;21.054;2024-01-07T07:08:54;16.17;;;7.13;;
30896;SDS011;64229;52.246;21.054;2024-01-07T07:11:19;25.90;;;8.23;;
30896;SDS011;64229;52.246;21.054;2024-01-07T07:13:44;16.88;;;7.50;;
30896;SDS011;64229;52.246;21.054;2024-01-07T07:16:10;21.38;;;9.07;;
30896;SDS011;64229;52.246;21.054;2024-01-07T07:18:35;17.90;;;9.07;;
30896;SDS011;64229;52.246;21.054;2024-01-07T07:21:00;15.75;;;7.63;;
30896;SDS011;64229;52.246;21.054;2024-01-07T07:23:25;16.60;;;8.05;;
30896;SDS011;64229;52.246;21.054;2024-01-07T07:25:51;18.48;;;8.68;;
30896;SDS011;64229;52.246;21.054;2024-01-07T07:28:16;22.45;;;8.38;;
30896;SDS011;64229;52.246;21.054;2024-01-07T07:30:42;17.02;;;8.70;;
30896;SDS011;64229;52.246;21.054;2024-01-07T07:33:07;27.05;;;9.25;;
30896;SDS011;64229;52.246;21.054;2024-01-07T07:35:33;23.90;;;10.30;;
30896;SDS011;64229;52.246;21.054;2024-01-07T07:37:58;22.83;;;8.93;;
30896;SDS011;64229;52.246;21.054;2024-01-07T07:40:23;22.75;;;9.05;;
30896;SDS011;64229;52.246;21.054;2024-01-07T07:42:48;19.23;;;8.82;;
30896;SDS011;64229;52.246;21.054;2024-01-07T07:45:14;23.77;;;9.48;;
30896;SDS011;64229;52.246;21.054;2024-01-07T07:47:39;23.58;;;9.38;;
30896;SDS011;64229;52.246;21.054;2024-01-07T07:50:09;20.08;;;8.40;;
30896;SDS011;64229;52.246;21.054;2024-01-07T07:52:35;19.15;;;8.00;;
30896;SDS011;64229;52.246;21.054;2024-01-07T07:55:01;19.73;;;9.18;;
30896;SDS011;64229;52.246;21.054;2024-01-07T07:57:26;22.15;;;8.82;;
30896;SDS011;64229;52.246;21.054;2024-01-07T07:59:51;19.30;;;8.85;;
30896;SDS011;64229;52.246;21.054;2024-01-07T08:02:17;21.58;;;8.57;;
30896;SDS011;64229;52.246;21.054;2024-01-07T08:04:43;23.08;;;8.57;;
30896;SDS011;64229;52.246;21.054;2024-01-07T08:07:09;19.65;;;9.23;;
30896;SDS011;64229;52.246;21.054;2024-01-07T08:09:34;22.85;;;8.55;;
30896;SDS011;64229;52.246;21.054;2024-01-07T08:12:03;23.52;;;9.02;;
30896;SDS011;64229;52.246;21.054;2024-01-07T08:14:29;21.33;;;9.18;;
30896;SDS011;64229;52.246;21.054;2024-01-07T08:16:54;30.63;;;9.52;;
30896;SDS011;64229;52.246;21.054;2024-01-07T08:19:20;26.80;;;9.32;;
30896;SDS011;64229;52.246;21.054;2024-01-07T08:21:45;25.48;;;9.82;;
30896;SDS011;64229;52.246;21.054;2024-01-07T08:24:11;27.45;;;9.77;;
30896;SDS011;64229;52.246;21.054;2024-01-07T08:26:36;22.67;;;8.52;;
30896;SDS011;64229;52.246;21.054;2024-01-07T08:29:01;23.15;;;9.45;;
30896;SDS011;64229;52.246;21.054;2024-01-07T08:31:27;22.25;;;8.85;;
30896;SDS011;64229;52.246;21.054;2024-01-07T08:33:52;24.30;;;9.60;;
30896;SDS011;64229;52.246;21.054;2024-01-07T08:36:17;28.30;;;9.73;;
30896;SDS011;64229;52.246;21.054;2024-01-07T08:38:43;25.88;;;10.10;;
30896;SDS011;64229;52.246;21.054;2024-01-07T08:41:08;24.02;;;9.02;;
30896;SDS011;64229;52.246;21.054;2024-01-07T08:43:34;23.70;;;8.60;;
30896;SDS011;64229;52.246;21.054;2024-01-07T08:45:59;20.75;;;9.18;;
30896;SDS011;64229;52.246;21.054;2024-01-07T08:48:25;30.83;;;9.30;;
30896;SDS011;64229;52.246;21.054;2024-01-07T08:50:50;24.25;;;8.85;;
30896;SDS011;64229;52.246;21.054;2024-01-07T08:53:16;31.65;;;10.57;;
30896;SDS011;64229;52.246;21.054;2024-01-07T08:55:41;25.60;;;9.75;;
30896;SDS011;64229;52.246;21.054;2024-01-07T08:58:06;25.40;;;9.30;;
30896;SDS011;64229;52.246;21.054;2024-01-07T09:00:32;22.10;;;9.43;;
30896;SDS011;64229;52.246;21.054;2024-01-07T09:02:57;25.45;;;9.45;;
30896;SDS011;64229;52.246;21.054;2024-01-07T09:05:22;28.30;;;9.70;;
30896;SDS011;64229;52.246;21.054;2024-01-07T09:07:49;30.35;;;9.80;;
30896;SDS011;64229;52.246;21.054;2024-01-07T09:11:58;40.42;;;9.88;;
30896;SDS011;64229;52.246;21.054;2024-01-07T09:14:25;28.25;;;9.15;;
30896;SDS011;64229;52.246;21.054;2024-01-07T09:16:50;21.05;;;8.63;;
30896;SDS011;64229;52.246;21.054;2024-01-07T09:19:16;53.08;;;9.40;;
30896;SDS011;64229;52.246;21.054;2024-01-07T09:21:42;29.38;;;9.55;;
30896;SDS011;64229;52.246;21.054;2024-01-07T09:24:08;42.55;;;9.68;;
30896;SDS011;64229;52.246;21.054;2024-01-07T09:29:08;19.52;;;7.82;;
30896;SDS011;64229;52.246;21.054;2024-01-07T09:31:33;19.35;;;8.07;;
30896;SDS011;64229;52.246;21.054;2024-01-07T09:33:59;15.85;;;7.45;;
30896;SDS011;64229;52.246;21.054;2024-01-07T09:36:24;14.70;;;7.20;;
30896;SDS011;64229;52.246;21.054;2024-01-07T09:38:49;18.13;;;8.10;;
30896;SDS011;64229;52.246;21.054;2024-01-07T09:41:15;17.42;;;8.15;;
30896;SDS011;64229;52.246;21.054;2024-01-07T09:43:40;23.50;;;7.88;;
30896;SDS011;64229;52.246;21.054;2024-01-07T09:46:05;19.30;;;9.75;;
30896;SDS011;64229;52.246;21.054;2024-01-07T09:48:31;20.05;;;8.95;;
30896;SDS011;64229;52.246;21.054;2024-01-07T09:50:56;27.20;;;9.68;;
30896;SDS011;64229;52.246;21.054;2024-01-07T09:53:23;28.45;;;9.02;;
30896;SDS011;64229;52.246;21.054;2024-01-07T09:58:35;18.67;;;8.75;;
30896;SDS011;64229;52.246;21.054;2024-01-07T10:01:01;30.23;;;9.95;;
30896;SDS011;64229;52.246;21.054;2024-01-07T10:03:26;17.58;;;8.30;;
30896;SDS011;64229;52.246;21.054;2024-01-07T10:05:52;24.77;;;9.02;;
30896;SDS011;64229;52.246;21.054;2024-01-07T10:08:17;31.02;;;9.75;;
30896;SDS011;64229;52.246;21.054;2024-01-07T10:10:42;30.52;;;9.30;;
30896;SDS011;64229;52.246;21.054;2024-01-07T10:13:08;34.03;;;9.77;;
30896;SDS011;64229;52.246;21.054;2024-01-07T10:15:34;36.58;;;9.95;;
30896;SDS011;64229;52.246;21.054;2024-01-07T10:18:02;45.17;;;10.18;;
30896;SDS011;64229;52.246;21.054;2024-01-07T10:20:31;40.28;;;10.38;;
30896;SDS011;64229;52.246;21.054;2024-01-07T10:22:58;44.47;;;10.68;;
30896;SDS011;64229;52.246;21.054;2024-01-07T10:25:23;42.13;;;10.27;;
30896;SDS011;64229;52.246;21.054;2024-01-07T10:27:49;37.80;;;10.68;;
30896;SDS011;64229;52.246;21.054;2024-01-07T10:30:15;41.08;;;11.73;;
30896;SDS011;64229;52.246;21.054;2024-01-07T10:32:41;45.13;;;11.75;;
30896;SDS011;64229;52.246;21.054;2024-01-07T10:35:07;45.42;;;11.55;;
30896;SDS011;64229;52.246;21.054;2024-01-07T10:37:37;25.38;;;9.25;;
30896;SDS011;64229;52.246;21.054;2024-01-07T10:40:04;24.48;;;9.07;;
30896;SDS011;64229;52.246;21.054;2024-01-07T10:42:31;25.65;;;10.10;;
30896;SDS011;64229;52.246;21.054;2024-01-07T10:44:58;21.63;;;9.57;;
30896;SDS011;64229;52.246;21.054;2024-01-07T10:47:26;22.10;;;8.98;;
30896;SDS011;64229;52.246;21.054;2024-01-07T10:49:54;19.50;;;8.68;;
30896;SDS011;64229;52.246;21.054;2024-01-07T10:52:22;20.33;;;9.35;;
30896;SDS011;64229;52.246;21.054;2024-01-07T10:54:48;24.80;;;9.70;;
30896;SDS011;64229;52.246;21.054;2024-01-07T10:57:33;27.10;;;10.93;;
30896;SDS011;64229;52.246;21.054;2024-01-07T11:00:05;22.15;;;9.75;;
30896;SDS011;64229;52.246;21.054;2024-01-07T11:02:34;22.42;;;9.05;;
30896;SDS011;64229;52.246;21.054;2024-01-07T11:05:11;23.00;;;9.43;;
30896;SDS011;64229;52.246;21.054;2024-01-07T11:07:43;23.00;;;9.38;;
30896;SDS011;64229;52.246;21.054;2024-01-07T11:10:25;21.90;;;8.63;;
30896;SDS011;64229;52.246;21.054;2024-01-07T11:12:56;22.48;;;8.13;;
30896;SDS011;64229;52.246;21.054;2024-01-07T11:18:16;20.67;;;8.40;;
30896;SDS011;64229;52.246;21.054;2024-01-07T11:20:42;18.55;;;8.05;;
30896;SDS011;64229;52.246;21.054;2024-01-07T11:23:27;19.83;;;8.70;;
30896;SDS011;64229;52.246;21.054;2024-01-07T11:25:55;22.85;;;9.50;;
30896;SDS011;64229;52.246;21.054;2024-01-07T11:28:34;21.17;;;9.20;;
30896;SDS011;64229;52.246;21.054;2024-01-07T11:31:10;20.95;;;8.25;;
30896;SDS011;64229;52.246;21.054;2024-01-07T11:33:36;23.70;;;9.15;;
30896;SDS011;64229;52.246;21.054;2024-01-07T11:36:02;19.45;;;8.55;;
30896;SDS011;64229;52.246;21.054;2024-01-07T11:38:29;19.10;;;8.35;;
30896;SDS011;64229;52.246;21.054;2024-01-07T11:40:54;18.83;;;8.68;;
30896;SDS011;64229;52.246;21.054;2024-01-07T11:43:21;12.80;;;6.45;;
30896;SDS011;64229;52.246;21.054;2024-01-07T11:45:46;17.40;;;7.35;;
30896;SDS011;64229;52.246;21.054;2024-01-07T11:48:14;13.60;;;6.97;;
30896;SDS011;64229;52.246;21.054;2024-01-07T11:50:40;15.93;;;7.53;;
30896;SDS011;64229;52.246;21.054;2024-01-07T11:53:06;17.85;;;6.93;;
30896;SDS011;64229;52.246;21.054;2024-01-07T11:55:33;15.65;;;7.07;;
30896;SDS011;64229;52.246;21.054;2024-01-07T11:58:02;13.55;;;7.20;;
30896;SDS011;64229;52.246;21.054;2024-01-07T12:00:30;19.17;;;8.82;;
30896;SDS011;64229;52.246;21.054;2024-01-07T12:02:57;15.30;;;7.50;;
30896;SDS011;64229;52.246;21.054;2024-01-07T12:05:23;15.02;;;7.28;;
30896;SDS011;64229;52.246;21.054;2024-01-07T12:07:48;13.68;;;6.65;;
30896;SDS011;64229;52.246;21.054;2024-01-07T12:10:13;16.95;;;6.68;;
30896;SDS011;64229;52.246;21.054;2024-01-07T12:12:40;14.50;;;6.05;;
30896;SDS011;64229;52.246;21.054;2024-01-07T12:15:07;13.90;;;6.38;;
30896;SDS011;64229;52.246;21.054;2024-01-07T12:17:33;15.88;;;7.63;;
30896;SDS011;64229;52.246;21.054;2024-01-07T12:19:59;16.67;;;8.13;;
30896;SDS011;64229;52.246;21.054;2024-01-07T12:22:26;20.42;;;7.88;;
30896;SDS011;64229;52.246;21.054;2024-01-07T12:25:01;19.17;;;7.47;;
30896;SDS011;64229;52.246;21.054;2024-01-07T12:27:28;19.63;;;7.82;;
30896;SDS011;64229;52.246;21.054;2024-01-07T12:29:54;20.00;;;7.60;;
30896;SDS011;64229;52.246;21.054;2024-01-07T12:32:21;19.73;;;8.15;;
30896;SDS011;64229;52.246;21.054;2024-01-07T12:34:47;17.20;;;8.00;;
30896;SDS011;64229;52.246;21.054;2024-01-07T12:37:13;20.33;;;8.25;;
30896;SDS011;64229;52.246;21.054;2024-01-07T12:39:39;19.42;;;7.93;;
30896;SDS011;64229;52.246;21.054;2024-01-07T12:42:04;19.63;;;8.10;;
30896;SDS011;64229;52.246;21.054;2024-01-07T12:44:29;18.50;;;7.85;;
30896;SDS011;64229;52.246;21.054;2024-01-07T12:46:54;20.80;;;8.93;;
30896;SDS011;64229;52.246;21.054;2024-01-07T12:49:20;21.13;;;7.65;;
30896;SDS011;64229;52.246;21.054;2024-01-07T12:51:46;16.20;;;7.13;;
30896;SDS011;64229;52.246;21.054;2024-01-07T12:54:12;17.80;;;7.25;;
30896;SDS011;64229;52.246;21.054;2024-01-07T12:56:37;19.25;;;7.78;;
30896;SDS011;64229;52.246;21.054;2024-01-07T12:59:02;16.92;;;7.07;;
30896;SDS011;64229;52.246;21.054;2024-01-07T13:01:27;18.60;;;7.25;;
30896;SDS011;64229;52.246;21.054;2024-01-07T13:03:53;17.52;;;7.00;;
30896;SDS011;64229;52.246;21.054;2024-01-07T13:06:18;13.45;;;7.03;;
30896;SDS011;64229;52.246;21.054;2024-01-07T13:08:43;19.33;;;7.20;;
30896;SDS011;64229;52.246;21.054;2024-01-07T13:11:09;20.40;;;7.35;;
30896;SDS011;64229;52.246;21.054;2024-01-07T13:13:38;16.88;;;7.80;;
30896;SDS011;64229;52.246;21.054;2024-01-07T13:16:04;15.52;;;7.30;;
30896;SDS011;64229;52.246;21.054;2024-01-07T13:18:29;15.77;;;7.20;;
30896;SDS011;64229;52.246;21.054;2024-01-07T13:20:54;19.05;;;7.70;;
30896;SDS011;64229;52.246;21.054;2024-01-07T13:23:20;19.63;;;7.20;;
30896;SDS011;64229;52.246;21.054;2024-01-07T13:25:45;17.52;;;7.03;;
30896;SDS011;64229;52.246;21.054;2024-01-07T13:28:10;14.77;;;7.25;;
30896;SDS011;64229;52.246;21.054;2024-01-07T13:30:36;16.67;;;7.40;;
30896;SDS011;64229;52.246;21.054;2024-01-07T13:33:02;21.70;;;7.03;;
30896;SDS011;64229;52.246;21.054;2024-01-07T13:35:28;16.08;;;6.88;;
30896;SDS011;64229;52.246;21.054;2024-01-07T13:37:53;15.80;;;7.32;;
30896;SDS011;64229;52.246;21.054;2024-01-07T13:40:18;13.15;;;6.50;;
30896;SDS011;64229;52.246;21.054;2024-01-07T13:42:44;18.15;;;6.80;;
30896;SDS011;64229;52.246;21.054;2024-01-07T13:45:09;19.88;;;7.13;;
30896;SDS011;64229;52.246;21.054;2024-01-07T13:47:35;15.82;;;7.28;;
30896;SDS011;64229;52.246;21.054;2024-01-07T13:50:00;18.92;;;6.72;;
30896;SDS011;64229;52.246;21.054;2024-01-07T13:52:26;18.30;;;7.70;;
30896;SDS011;64229;52.246;21.054;2024-01-07T13:54:54;19.65;;;7.72;;
30896;SDS011;64229;52.246;21.054;2024-01-07T13:57:20;19.02;;;7.47;;
30896;SDS011;64229;52.246;21.054;2024-01-07T13:59:45;15.32;;;7.97;;
30896;SDS011;64229;52.246;21.054;2024-01-07T14:02:11;16.13;;;7.43;;
30896;SDS011;64229;52.246;21.054;2024-01-07T14:04:36;20.58;;;8.00;;
30896;SDS011;64229;52.246;21.054;2024-01-07T14:07:01;20.60;;;7.97;;
30896;SDS011;64229;52.246;21.054;2024-01-07T14:09:27;13.63;;;6.47;;
30896;SDS011;64229;52.246;21.054;2024-01-07T14:11:56;19.00;;;7.63;;
30896;SDS011;64229;52.246;21.054;2024-01-07T14:14:22;19.60;;;7.85;;
30896;SDS011;64229;52.246;21.054;2024-01-07T14:16:48;16.10;;;6.93;;
30896;SDS011;64229;52.246;21.054;2024-01-07T14:19:13;15.20;;;6.90;;
30896;SDS011;64229;52.246;21.054;2024-01-07T14:21:41;16.67;;;7.97;;
30896;SDS011;64229;52.246;21.054;2024-01-07T14:24:06;17.77;;;8.05;;